createdAt,value
2023-03-06T00:01:38.204Z,50.80
2023-03-06T00:04:08.198Z,60.17
2023-03-06T00:06:35.608Z,63.53
2023-03-06T00:09:02.976Z,61.22
2023-03-06T00:11:30.272Z,54.08
2023-03-06T00:13:57.691Z,56.38
2023-03-06T00:16:25.773Z,55.83
2023-03-06T00:18:53.075Z,58.53
2023-03-06T00:21:21.839Z,57.13
2023-03-06T00:23:49.174Z,55.53
2023-03-06T00:26:16.561Z,56.92
2023-03-06T00:28:43.890Z,59.95
2023-03-06T00:31:13.555Z,63.00
2023-03-06T00:33:40.891Z,63.38
2023-03-06T00:36:08.453Z,53.58
2023-03-06T00:38:37.277Z,60.42
2023-03-06T00:41:09.307Z,52.55
2023-03-06T00:43:37.875Z,61.00
2023-03-06T00:46:05.825Z,51.55
2023-03-06T00:48:34.122Z,64.00
2023-03-06T00:51:01.818Z,60.95
2023-03-06T00:53:29.084Z,61.45
2023-03-06T00:55:56.423Z,66.35
2023-03-06T00:58:23.765Z,61.03
2023-03-06T01:00:51.423Z,63.15
2023-03-06T01:03:18.787Z,62.00
2023-03-06T01:05:46.242Z,59.72
2023-03-06T01:08:13.579Z,57.22
2023-03-06T01:10:41.040Z,59.90
2023-03-06T01:13:09.767Z,53.92
2023-03-06T01:15:37.069Z,54.80
2023-03-06T01:18:04.575Z,57.72
2023-03-06T01:20:32.128Z,55.90
2023-03-06T01:22:59.478Z,70.97
2023-03-06T01:25:28.669Z,55.50
2023-03-06T01:27:58.715Z,60.10
2023-03-06T01:30:26.048Z,59.45
2023-03-06T01:32:53.353Z,61.03
2023-03-06T01:35:20.743Z,56.75
2023-03-06T01:37:48.147Z,59.88
2023-03-06T01:40:15.703Z,57.08
2023-03-06T01:42:43.082Z,64.50
2023-03-06T01:45:13.421Z,61.58
2023-03-06T01:47:40.912Z,60.42
2023-03-06T01:50:10.875Z,61.58
2023-03-06T01:52:47.950Z,58.85
2023-03-06T01:55:21.047Z,61.97
2023-03-06T01:57:55.159Z,54.33
2023-03-06T02:00:25.356Z,59.15
2023-03-06T02:02:55.742Z,55.08
2023-03-06T02:05:23.564Z,51.15
2023-03-06T02:07:51.913Z,59.47
2023-03-06T02:10:20.607Z,49.60
2023-03-06T02:12:50.314Z,52.20
2023-03-06T02:15:22.205Z,54.25
2023-03-06T02:17:51.257Z,57.00
2023-03-06T02:20:33.739Z,50.03
2023-03-06T02:23:16.745Z,45.25
2023-03-06T02:25:48.428Z,51.63
2023-03-06T02:28:18.782Z,47.70
2023-03-06T02:30:48.662Z,47.75
2023-03-06T02:33:23.139Z,46.30
2023-03-06T02:35:55.798Z,47.33
2023-03-06T02:38:28.993Z,46.92
2023-03-06T02:40:58.145Z,51.33
2023-03-06T02:43:34.552Z,47.90
2023-03-06T02:46:03.012Z,44.40
2023-03-06T02:48:30.303Z,42.85
2023-03-06T02:50:57.922Z,47.33
2023-03-06T02:53:26.409Z,48.35
2023-03-06T02:55:54.503Z,43.25
2023-03-06T02:58:21.872Z,45.25
2023-03-06T03:00:49.676Z,49.33
2023-03-06T03:03:17.966Z,48.25
2023-03-06T03:05:45.276Z,45.80
2023-03-06T03:08:20.140Z,43.75
2023-03-06T03:10:49.223Z,49.22
2023-03-06T03:13:16.654Z,52.72
2023-03-06T03:15:46.706Z,51.03
2023-03-06T03:18:14.087Z,47.00
2023-03-06T03:20:43.849Z,53.25
2023-03-06T03:23:11.225Z,45.67
2023-03-06T03:25:38.594Z,50.38
2023-03-06T03:28:06.155Z,48.30
2023-03-06T03:30:33.638Z,42.30
2023-03-06T03:33:01.384Z,44.22
2023-03-06T03:35:28.921Z,46.03
2023-03-06T03:37:57.109Z,43.60
2023-03-06T03:40:24.772Z,51.05
2023-03-06T03:42:52.380Z,48.42
2023-03-06T03:45:20.809Z,47.63
2023-03-06T03:47:48.312Z,46.80
2023-03-06T03:50:15.960Z,49.75
2023-03-06T03:52:43.812Z,47.95
2023-03-06T03:55:12.763Z,42.65
2023-03-06T03:57:43.121Z,48.15
2023-03-06T04:00:16.046Z,42.67
2023-03-06T04:02:57.475Z,48.85
2023-03-06T04:05:35.956Z,43.47
2023-03-06T04:08:05.740Z,43.40
2023-03-06T04:10:35.060Z,48.97
2023-03-06T04:13:03.445Z,50.67
2023-03-06T04:15:31.971Z,43.13
2023-03-06T04:18:00.967Z,46.17
2023-03-06T04:20:30.589Z,52.38
2023-03-06T04:23:00.247Z,47.92
2023-03-06T04:25:27.894Z,45.08
2023-03-06T04:27:55.361Z,40.00
2023-03-06T04:30:25.585Z,43.88
2023-03-06T04:32:53.105Z,43.10
2023-03-06T04:35:20.678Z,50.67
2023-03-06T04:37:56.379Z,39.58
2023-03-06T04:40:28.716Z,41.47
2023-03-06T04:42:58.363Z,45.80
2023-03-06T04:45:27.210Z,48.03
2023-03-06T04:47:55.144Z,46.00
2023-03-06T04:50:24.035Z,42.22
2023-03-06T04:52:51.836Z,40.40
2023-03-06T04:55:19.891Z,47.30
2023-03-06T04:57:47.880Z,47.15
2023-03-06T05:00:22.200Z,52.40
2023-03-06T05:02:51.120Z,46.85
2023-03-06T05:05:19.375Z,46.00
2023-03-06T05:07:47.163Z,47.50
2023-03-06T05:10:16.687Z,47.28
2023-03-06T05:12:44.829Z,46.10
2023-03-06T05:15:13.196Z,56.88
2023-03-06T05:17:40.652Z,51.45
2023-03-06T05:20:10.300Z,55.90
2023-03-06T05:22:38.033Z,50.10
2023-03-06T05:25:06.473Z,59.63
2023-03-06T05:27:34.335Z,58.70
2023-03-06T05:30:01.789Z,57.83
2023-03-06T05:32:29.414Z,53.65
2023-03-06T05:34:56.745Z,56.92
2023-03-06T05:37:24.384Z,55.60
2023-03-06T05:39:51.918Z,76.85
2023-03-06T05:42:21.936Z,59.65
2023-03-06T05:44:49.361Z,62.47
2023-03-06T05:47:16.783Z,66.03
2023-03-06T05:49:44.108Z,70.13
2023-03-06T05:52:13.114Z,64.60
2023-03-06T05:54:40.396Z,57.40
2023-03-06T05:57:07.852Z,66.82
2023-03-06T05:59:35.970Z,57.85
2023-03-06T06:02:05.395Z,62.55
2023-03-06T06:04:32.881Z,59.55
2023-03-06T06:07:01.245Z,61.70
2023-03-06T06:09:29.277Z,63.88
2023-03-06T06:12:02.425Z,58.28
2023-03-06T06:14:30.742Z,70.43
2023-03-06T06:16:58.041Z,64.97
2023-03-06T06:19:28.038Z,59.47
2023-03-06T06:21:55.682Z,65.47
2023-03-06T06:24:25.603Z,68.28
2023-03-06T06:26:55.626Z,64.53
2023-03-06T06:29:23.484Z,63.83
2023-03-06T06:31:52.135Z,72.15
2023-03-06T06:34:20.720Z,59.10
2023-03-06T06:36:48.331Z,62.30
2023-03-06T06:39:20.279Z,67.20
2023-03-06T06:42:05.620Z,62.30
2023-03-06T06:44:38.937Z,60.63
2023-03-06T06:47:22.208Z,65.25
2023-03-06T06:49:52.775Z,61.03
2023-03-06T06:52:21.000Z,57.58
2023-03-06T06:54:48.331Z,62.92
2023-03-06T06:57:16.332Z,60.85
2023-03-06T06:59:43.805Z,55.78
2023-03-06T07:02:12.945Z,60.00
2023-03-06T07:04:52.343Z,59.08
2023-03-06T07:07:25.541Z,56.28
2023-03-06T07:09:54.680Z,52.70
2023-03-06T07:12:22.122Z,56.90
2023-03-06T07:14:50.673Z,57.63
2023-03-06T07:17:18.420Z,61.88
2023-03-06T07:19:45.859Z,64.07
2023-03-06T07:22:13.313Z,61.70
2023-03-06T07:24:40.680Z,59.80
2023-03-06T07:27:08.080Z,59.00
2023-03-06T07:29:35.598Z,61.55
2023-03-06T07:32:03.039Z,60.55
2023-03-06T07:34:30.404Z,67.15
2023-03-06T07:36:57.767Z,61.22
2023-03-06T07:39:25.176Z,60.85
2023-03-06T07:41:53.476Z,63.72
2023-03-06T07:44:20.867Z,64.97
2023-03-06T07:46:48.195Z,63.40
2023-03-06T07:49:15.994Z,60.65
2023-03-06T07:51:43.527Z,68.78
2023-03-06T07:54:10.939Z,70.35
2023-03-06T07:56:38.313Z,70.40
2023-03-06T07:59:05.596Z,66.57
2023-03-06T08:01:33.177Z,64.80
2023-03-06T08:04:02.028Z,64.60
2023-03-06T08:06:29.504Z,66.72
2023-03-06T08:08:57.143Z,71.57
2023-03-06T08:11:27.089Z,66.57
2023-03-06T08:13:55.725Z,65.65
2023-03-06T08:16:25.865Z,69.30
2023-03-06T08:18:53.764Z,73.18
2023-03-06T08:21:26.710Z,61.45
2023-03-06T08:23:56.526Z,65.90
2023-03-06T08:26:27.226Z,71.95
2023-03-06T08:28:57.001Z,65.97
2023-03-06T08:31:35.909Z,63.35
2023-03-06T08:34:10.932Z,62.45
2023-03-06T08:36:38.831Z,64.72
2023-03-06T08:39:06.645Z,63.70
2023-03-06T08:41:34.337Z,71.10
2023-03-06T08:44:01.627Z,68.30
2023-03-06T08:46:32.718Z,70.45
2023-03-06T08:49:00.385Z,63.40
2023-03-06T08:51:29.039Z,63.78
2023-03-06T08:53:57.919Z,66.65
2023-03-06T08:56:36.088Z,66.88
2023-03-06T08:59:04.716Z,68.65
2023-03-06T09:01:35.148Z,71.78
2023-03-06T09:04:06.322Z,65.35
2023-03-06T09:06:38.640Z,67.90
2023-03-06T09:09:06.469Z,71.82
2023-03-06T09:11:34.201Z,74.78
2023-03-06T09:14:01.598Z,74.78
2023-03-06T09:16:29.234Z,75.43
2023-03-06T09:18:57.836Z,72.85
2023-03-06T09:21:26.268Z,67.05
2023-03-06T09:23:53.893Z,67.18
2023-03-06T09:26:21.413Z,67.68
2023-03-06T09:28:48.769Z,63.67
2023-03-06T09:31:18.673Z,68.13
2023-03-06T09:33:46.794Z,68.18
2023-03-06T09:36:19.211Z,61.67
2023-03-06T09:38:48.367Z,56.83
2023-03-06T09:41:27.956Z,57.90
2023-03-06T09:44:04.866Z,66.47
2023-03-06T09:46:59.640Z,66.85
2023-03-06T09:49:47.456Z,58.58
2023-03-06T09:52:23.464Z,61.85
2023-03-06T09:55:02.726Z,58.03
2023-03-06T09:57:41.789Z,55.50
2023-03-06T10:00:16.848Z,56.53
2023-03-06T10:02:45.938Z,54.47
2023-03-06T10:05:19.828Z,54.35
2023-03-06T10:08:00.580Z,57.80
2023-03-06T10:10:47.037Z,52.40
2023-03-06T10:13:38.209Z,57.13
2023-03-06T10:16:30.426Z,50.45
2023-03-06T10:19:04.515Z,53.50
2023-03-06T10:21:50.396Z,55.60
2023-03-06T10:24:35.142Z,44.90
2023-03-06T10:27:31.593Z,49.72
2023-03-06T10:30:11.326Z,48.22
2023-03-06T10:32:51.199Z,50.92
2023-03-06T10:35:22.183Z,51.70
2023-03-06T10:37:51.956Z,47.92
2023-03-06T10:40:21.903Z,55.42
2023-03-06T10:42:56.018Z,52.03
2023-03-06T10:45:33.076Z,50.30
2023-03-06T10:48:14.629Z,52.33
2023-03-06T10:50:41.980Z,45.38
2023-03-06T10:53:23.411Z,51.35
2023-03-06T10:56:01.384Z,55.22
2023-03-06T10:58:32.932Z,52.00
2023-03-06T11:01:09.297Z,44.17
2023-03-06T11:03:37.479Z,49.38
2023-03-06T11:06:13.096Z,52.40
2023-03-06T11:08:43.308Z,47.40
2023-03-06T11:11:36.401Z,43.10
2023-03-06T11:14:15.270Z,40.97
2023-03-06T11:16:53.011Z,43.45
2023-03-06T11:19:28.009Z,50.58
2023-03-06T11:22:06.030Z,48.67
2023-03-06T11:24:40.606Z,46.90
2023-03-06T11:27:19.237Z,46.00
2023-03-06T11:29:50.465Z,38.13
2023-03-06T11:32:39.372Z,47.17
2023-03-06T11:35:12.718Z,41.53
2023-03-06T11:38:07.765Z,41.78
2023-03-06T11:40:49.818Z,41.72
2023-03-06T11:43:44.986Z,43.25
2023-03-06T11:46:30.736Z,44.10
2023-03-06T11:49:12.976Z,47.63
2023-03-06T11:51:46.410Z,46.72
2023-03-06T11:54:14.229Z,42.38
2023-03-06T11:56:55.417Z,45.55
2023-03-06T11:59:37.386Z,39.88
2023-03-06T12:02:21.923Z,39.97
2023-03-06T12:05:01.380Z,41.53
2023-03-06T12:07:58.012Z,43.97
2023-03-06T12:10:51.871Z,41.83
2023-03-06T12:16:11.083Z,45.78
2023-03-06T12:19:15.981Z,40.65
2023-03-06T12:21:47.261Z,40.15
2023-03-06T12:24:32.208Z,41.13
2023-03-06T12:27:08.208Z,44.85
2023-03-06T12:29:47.727Z,42.47
2023-03-06T12:32:38.397Z,37.65
2023-03-06T12:35:28.060Z,38.58
2023-03-06T12:38:04.377Z,37.47
2023-03-06T12:40:59.353Z,40.35
2023-03-06T12:43:39.926Z,37.00
2023-03-06T12:46:25.333Z,36.42
2023-03-06T12:49:08.890Z,39.13
2023-03-06T12:51:37.619Z,37.20
2023-03-06T12:54:11.326Z,36.50
2023-03-06T12:56:39.821Z,36.25
2023-03-06T12:59:47.914Z,34.55
2023-03-06T13:02:24.480Z,37.50
2023-03-06T13:05:14.614Z,40.03
2023-03-06T13:08:12.704Z,37.95
2023-03-06T13:10:42.337Z,33.67
2023-03-06T13:13:34.217Z,34.22
2023-03-06T13:16:15.944Z,37.38
2023-03-06T13:18:43.276Z,37.35
2023-03-06T13:22:00.268Z,33.35
2023-03-06T13:24:33.270Z,33.83
2023-03-06T13:27:12.079Z,31.05
2023-03-06T13:29:39.368Z,33.47
2023-03-06T13:32:15.932Z,37.78
2023-03-06T13:34:52.498Z,30.65
2023-03-06T13:37:20.166Z,32.33
2023-03-06T13:39:59.585Z,30.92
2023-03-06T13:42:37.425Z,30.88
2023-03-06T13:45:23.931Z,31.42
2023-03-06T13:48:22.616Z,31.63
2023-03-06T13:50:46.242Z,32.58
2023-03-06T13:53:25.348Z,30.67
2023-03-06T13:56:10.008Z,32.28
2023-03-06T13:58:53.434Z,36.15
2023-03-06T14:01:44.942Z,37.92
2023-03-06T14:04:38.051Z,40.60
2023-03-06T14:07:11.184Z,35.67
2023-03-06T14:09:43.580Z,36.38
2023-03-06T14:12:27.874Z,33.38
2023-03-06T14:14:58.748Z,36.00
2023-03-06T14:17:34.831Z,32.20
2023-03-06T14:20:18.224Z,37.47
2023-03-06T14:22:45.707Z,30.98
2023-03-06T14:25:13.032Z,35.38
2023-03-06T14:27:58.173Z,39.13
2023-03-06T14:30:28.068Z,33.63
2023-03-06T14:32:58.419Z,34.78
2023-03-06T14:35:32.128Z,41.05
2023-03-06T14:38:02.810Z,36.05
2023-03-06T14:40:34.700Z,35.83
2023-03-06T14:43:12.360Z,38.35
2023-03-06T14:46:14.959Z,37.17
2023-03-06T14:48:45.821Z,34.35
2023-03-06T14:51:21.012Z,33.72
2023-03-06T14:53:50.693Z,35.40
2023-03-06T14:56:21.248Z,33.88
2023-03-06T14:58:56.865Z,31.08
2023-03-06T15:01:40.894Z,32.10
2023-03-06T15:04:45.744Z,31.90
2023-03-06T15:07:17.709Z,32.00
2023-03-06T15:09:49.473Z,35.33
2023-03-06T15:12:22.785Z,31.50
2023-03-06T15:15:09.571Z,34.13
2023-03-06T15:17:41.709Z,29.98
2023-03-06T15:21:00.289Z,27.13
2023-03-06T15:23:40.177Z,25.60
2023-03-06T15:26:31.929Z,32.35
2023-03-06T15:29:11.293Z,30.77
2023-03-06T15:31:44.045Z,32.67
2023-03-06T15:34:11.478Z,30.38
2023-03-06T15:36:42.786Z,34.60
2023-03-06T15:39:28.160Z,34.10
2023-03-06T15:42:00.774Z,29.70
2023-03-06T15:44:31.693Z,27.10
2023-03-06T15:47:08.548Z,26.80
2023-03-06T15:49:38.138Z,22.52
2023-03-06T15:52:09.433Z,23.90
2023-03-06T15:54:37.127Z,27.00
2023-03-06T15:57:06.087Z,23.23
2023-03-06T15:59:41.453Z,26.35
2023-03-06T16:02:17.985Z,26.13
2023-03-06T16:04:46.110Z,26.52
2023-03-06T16:07:14.254Z,28.50
2023-03-06T16:09:42.880Z,30.63
2023-03-06T16:12:30.743Z,25.02
2023-03-06T16:15:01.202Z,24.15
2023-03-06T16:17:28.483Z,29.48
2023-03-06T16:19:55.869Z,26.38
2023-03-06T16:22:23.242Z,23.83
2023-03-06T16:24:50.925Z,24.20
2023-03-06T16:27:19.811Z,27.83
2023-03-06T16:29:47.232Z,25.25
2023-03-06T16:32:14.499Z,32.63
2023-03-06T16:34:41.942Z,31.23
2023-03-06T16:37:12.749Z,27.40
2023-03-06T16:39:40.172Z,25.30
2023-03-06T16:42:07.487Z,28.60
2023-03-06T16:44:34.830Z,29.42
2023-03-06T16:47:02.111Z,27.48
2023-03-06T16:49:29.544Z,27.17
2023-03-06T16:51:56.908Z,22.73
2023-03-06T16:54:26.161Z,33.97
2023-03-06T16:56:53.491Z,27.90
2023-03-06T16:59:21.042Z,27.58
2023-03-06T17:01:48.378Z,31.05
2023-03-06T17:04:15.769Z,29.38
2023-03-06T17:06:43.346Z,27.42
2023-03-06T17:09:11.074Z,34.03
2023-03-06T17:11:38.758Z,30.52
2023-03-06T17:14:06.978Z,32.05
2023-03-06T17:16:36.521Z,31.25
2023-03-06T17:19:03.933Z,33.75
2023-03-06T17:21:31.644Z,36.08
2023-03-06T17:24:01.649Z,29.58
2023-03-06T17:26:29.292Z,32.63
2023-03-06T17:28:56.778Z,33.63
2023-03-06T17:31:26.798Z,29.02
2023-03-06T17:33:59.114Z,30.73
2023-03-06T17:36:27.835Z,34.33
2023-03-06T17:38:56.927Z,30.35
2023-03-06T17:41:25.040Z,30.80
2023-03-06T17:43:55.270Z,34.92
2023-03-06T17:46:22.694Z,29.63
2023-03-06T17:48:50.280Z,36.95
2023-03-06T17:51:17.634Z,34.78
2023-03-06T17:53:45.001Z,31.60
2023-03-06T17:56:14.331Z,33.65
2023-03-06T17:58:41.733Z,29.90
2023-03-06T18:01:29.953Z,28.75
2023-03-06T18:03:57.669Z,33.25
2023-03-06T18:06:27.566Z,39.88
2023-03-06T18:08:54.936Z,25.33
2023-03-06T18:11:22.802Z,32.55
2023-03-06T18:13:50.610Z,31.13
2023-03-06T18:16:20.992Z,38.15
2023-03-06T18:18:51.693Z,31.45
2023-03-06T18:21:19.929Z,33.55
2023-03-06T18:23:47.421Z,33.42
2023-03-06T18:26:18.597Z,32.50
2023-03-06T18:28:48.063Z,33.28
2023-03-06T18:31:24.606Z,33.80
2023-03-06T18:33:53.360Z,28.92
2023-03-06T18:36:22.873Z,32.17
2023-03-06T18:38:50.510Z,30.35
2023-03-06T18:41:19.229Z,36.38
2023-03-06T18:43:55.127Z,29.92
2023-03-06T18:46:23.736Z,37.10
2023-03-06T18:48:51.276Z,28.10
2023-03-06T18:51:20.128Z,28.10
2023-03-06T18:53:47.766Z,29.85
2023-03-06T18:56:22.340Z,35.00
2023-03-06T18:58:50.466Z,36.53
2023-03-06T19:01:18.475Z,35.17
2023-03-06T19:03:49.179Z,31.05
2023-03-06T19:06:17.330Z,30.48
2023-03-06T19:08:45.192Z,30.55
2023-03-06T19:11:15.153Z,35.03
2023-03-06T19:13:43.033Z,30.25
2023-03-06T19:16:17.750Z,40.47
2023-03-06T19:18:45.072Z,29.77
2023-03-06T19:21:20.972Z,36.05
2023-03-06T19:23:49.101Z,35.05
2023-03-06T19:26:18.719Z,37.58
2023-03-06T19:28:47.006Z,34.70
2023-03-06T19:31:20.449Z,36.85
2023-03-06T19:33:49.229Z,41.17
2023-03-06T19:36:19.291Z,40.28
2023-03-06T19:38:52.446Z,44.55
2023-03-06T19:41:19.714Z,38.95
2023-03-06T19:43:53.846Z,37.28
2023-03-06T19:46:22.112Z,47.15
2023-03-06T19:48:55.062Z,42.25
2023-03-06T19:51:22.526Z,39.28
2023-03-06T19:53:49.906Z,41.83
2023-03-06T19:56:29.080Z,36.25
2023-03-06T19:58:56.970Z,37.13
2023-03-06T20:01:26.612Z,40.58
2023-03-06T20:03:59.461Z,37.85
2023-03-06T20:06:29.253Z,37.80
2023-03-06T20:08:57.257Z,36.42
2023-03-06T20:11:29.841Z,36.65
2023-03-06T20:13:59.684Z,35.45
2023-03-06T20:16:28.196Z,42.17
2023-03-06T20:18:58.758Z,29.83
2023-03-06T20:21:31.348Z,31.05
2023-03-06T20:23:59.335Z,37.15
2023-03-06T20:26:28.826Z,39.92
2023-03-06T20:28:57.132Z,33.08
2023-03-06T20:31:26.779Z,31.77
2023-03-06T20:33:57.047Z,36.47
2023-03-06T20:36:28.889Z,37.33
2023-03-06T20:38:59.022Z,38.75
2023-03-06T20:41:28.743Z,40.60
2023-03-06T20:43:58.227Z,32.00
2023-03-06T20:46:26.227Z,32.55
2023-03-06T20:48:54.369Z,31.60
2023-03-06T20:51:28.588Z,32.95
2023-03-06T20:53:57.538Z,33.63
2023-03-06T20:56:27.884Z,39.25
2023-03-06T20:58:55.647Z,37.33
2023-03-06T21:01:31.634Z,43.30
2023-03-06T21:04:00.144Z,37.92
2023-03-06T21:06:30.864Z,43.00
2023-03-06T21:08:59.595Z,34.25
2023-03-06T21:11:27.962Z,39.72
2023-03-06T21:13:56.001Z,32.42
2023-03-06T21:16:25.638Z,45.22
2023-03-06T21:18:58.029Z,43.53
2023-03-06T21:21:29.801Z,43.70
2023-03-06T21:23:57.682Z,40.10
2023-03-06T21:26:27.346Z,38.08
2023-03-06T21:28:57.167Z,42.50
2023-03-06T21:31:25.228Z,38.95
2023-03-06T21:33:52.600Z,33.38
2023-03-06T21:36:21.788Z,39.03
2023-03-06T21:38:50.185Z,41.17
2023-03-06T21:41:28.615Z,42.58
2023-03-06T21:43:57.309Z,39.95
2023-03-06T21:46:25.579Z,39.05
2023-03-06T21:48:53.506Z,47.28
2023-03-06T21:51:23.460Z,40.88
2023-03-06T21:53:52.717Z,36.85
2023-03-06T21:56:23.849Z,36.30
2023-03-06T21:58:51.552Z,36.77
2023-03-06T22:01:22.800Z,42.63
2023-03-06T22:03:50.717Z,38.97
2023-03-06T22:06:22.815Z,40.67
2023-03-06T22:11:19.691Z,39.80
2023-03-06T22:13:50.598Z,41.60
2023-03-06T22:16:18.359Z,36.85
2023-03-06T22:18:47.389Z,41.42
2023-03-06T22:21:16.592Z,39.13
2023-03-06T22:23:44.323Z,41.33
2023-03-06T22:26:14.263Z,46.08
2023-03-06T22:28:42.090Z,38.08
2023-03-06T22:31:13.672Z,39.67
2023-03-06T22:33:44.302Z,39.15
2023-03-06T22:36:14.412Z,42.42
2023-03-06T22:38:43.764Z,42.08
2023-03-06T22:41:12.674Z,40.72
2023-03-06T22:43:40.282Z,40.70
2023-03-06T22:46:10.731Z,39.28
2023-03-06T22:48:38.119Z,35.50
2023-03-06T22:51:17.171Z,45.03
2023-03-06T22:53:45.081Z,41.50
2023-03-06T22:56:15.332Z,38.63
2023-03-06T22:58:44.812Z,39.67
2023-03-06T23:01:18.442Z,39.10
2023-03-06T23:03:54.236Z,40.65
2023-03-06T23:06:25.030Z,34.50
2023-03-06T23:09:00.900Z,40.58
2023-03-06T23:11:29.201Z,41.63
2023-03-06T23:14:17.157Z,40.35
2023-03-06T23:17:03.530Z,36.70
2023-03-06T23:19:53.125Z,39.97
2023-03-06T23:22:39.103Z,37.20
2023-03-06T23:25:24.888Z,39.53
2023-03-06T23:27:52.283Z,39.78
2023-03-06T23:30:19.726Z,43.85
2023-03-06T23:32:47.007Z,38.50
2023-03-06T23:35:14.561Z,45.33
2023-03-06T23:37:42.134Z,51.80
2023-03-06T23:40:10.246Z,41.78
2023-03-06T23:42:38.269Z,46.72
2023-03-06T23:45:07.302Z,42.33
2023-03-06T23:47:34.957Z,42.13
2023-03-06T23:50:02.429Z,45.28
2023-03-06T23:52:29.755Z,45.10
2023-03-06T23:54:57.149Z,37.03
2023-03-06T23:57:26.888Z,43.22
2023-03-06T23:59:54.221Z,44.47
